Dolton, IL (60419)

2:01 PM CST on March 01, 2017 (GMT -0600)
Historic Pullman | | Change Station
Active Advisory: Flood Warning

Elev 623 ft 41.69 °N, 87.61 °W | Updated 25 seconds ago

Overcast
Overcast
39.6 °F
Feels Like 36 °F
N
4.7
Wind Variable Wind from NNW

Today
High -- | Low -- °F
--% Chance of Precip.
Yesterday
High -- | Low -- °F
Precip. -- in
Pressure 29.65 in
Visibility 10.0 miles
Clouds Overcast 1400 ft
Windchill 36 °F
Dew Point 38 °F
Humidity 93%
Rainfall 0.09 in
Snow Depth Not available.
6:24 AM 5:41 PM
Waxing Crescent, 13% visible
METAR KIGQ 011955Z AUTO 27023G33KT 10SM OVC014 04/02 A2965 RMK AO2 T00390023
Pressure 29.65 in
Visibility 10.0 miles
Clouds Overcast 1400 ft
Windchill 36 °F
Dew Point 38 °F
Humidity 93%
Rainfall 0.09 in
Snow Depth Not available.
6:24 AM 5:41 PM
Waxing Crescent, 13% visible
METAR KIGQ 011955Z AUTO 27023G33KT 10SM OVC014 04/02 A2965 RMK AO2 T00390023

Get Your Daily Forecast Email!

Thanks for signing up!

Be on the lookout for a verification email in your inbox.

You'll start receiving the daily forecast at 8 AM.

×

10-Day Weather Forecast

Almanac

Astronomy

Mar. 01, 2017 Rise Set
Actual Time
Civil Twilight
Nautical Twilight
Astronomical Twilight
Moon
Length of Visible Light
Length of Day
Tomorrow will be .
, % of the Moon is Illuminated

Today's Extremes

State Highs State Lows

Community

WunderPhotos

Upload Photos

1,962,540 photos uploaded!

WunderBlog® & News

Nearby

Air Quality

  Air Quality AQ Index Pollutant
Not available.

Snow Depth

Station Depth Elevation

Earthquake Activity

City Distance Mag. Time & Date
Minimum magnitude displayed is 2.5.

Coastal Water Temperatures

Place Temperature

Stations

Nearby Weather Stations

Station Location Temp. Windchill Dew Point Humidity Wind Precip. Elev Updated Type
                   

Watches & Warnings

Flood Warning
Issued: 7:17 AM CST Mar. 1, 2017 – National Weather Service

The Flood Warning continues for
the Thorn creek at Thornton.
* Until late tonight.
* At 630 am Wednesday the stage was 10.1 feet.
* Flood stage is 10.0 feet.
* Minor flooding is occurring and minor flooding is forecast.
* Forecast... the river will continue rising to near 10.5 feet by this
afternoon. The river will fall below flood stage this evening.


Lat... Lon 4154 8767 4151 8760 4158 8754 4161 8760